Middlefield, Massachusetts
Current Conditions -  °F | °C
As of 11:54 AM on Saturday 22 Nov 2014 (Local Time) from KPSF Reporting Station
Clear Clear  
Wind Chill: 24°   Ceiling: Unl
Heat Index: 32°   Visibility: 10mi
Dew Point: 12°   Wind: 9mph
Humidity: 44%   Direction: 240°WSW
Pressure: 30.2"   Gusts: NA
Location:  42.35°N, 73.02°W
Report Text: KPSF 221654Z AUTO 24008KT 210V270 10SM CLR 00/M11 A3020 RMK AO2 SLP244 T00001111 $
Loading
Personal Weather Stations






























Interactive Weather Map New forecast layout! Learn more

10-Day Weather Forecast

Advertisements
Track Severe Weather on mobile